Time,TemperatureF,DewpointF,PressureIn,WindDirection,WindDirectionDegrees,WindSpeedMPH,WindSpeedGustMPH,Humidity,HourlyPrecipIn,Conditions,Clouds,dailyrainin,SolarRadiationWatts/m^2,SoftwareType,DateUTC
2013-03-02 08:41:00,23.0,-2.5,30.21,NNE,22,5.6,5.6,32,-99.99,,---,-99.99,0.00,VWS V14.01,2013-03-02 14:41:00,
2013-03-02 08:44:00,23.2,-2.3,30.21,NNW,338,3.4,3.8,32,-99.99,,---,-99.99,0.00,VWS V14.01,2013-03-02 14:44:00,
2013-03-02 08:45:00,23.2,-2.3,30.21,NE,45,4.9,4.9,32,-99.99,,---,-99.99,0.00,VWS V14.01,2013-03-02 14:45:00,
2013-03-02 08:51:00,23.4,-2.1,30.24,NNE,22,4.0,17.9,32,-99.99,,---,-99.99,0.00,VWS V14.01,2013-03-02 14:51:00,
2013-03-02 08:56:00,23.5,-2.0,30.24,NW,315,6.5,6.5,32,-99.99,,---,-99.99,0.00,VWS V14.01,2013-03-02 14:56:00,
2013-03-02 09:01:00,23.4,-4.2,30.24,WNW,292,7.8,10.3,29,-99.99,,---,-99.99,0.00,VWS V14.01,2013-03-02 15:01:00,
2013-03-02 09:06:00,23.4,-4.2,30.27,WNW,292,5.6,6.3,29,-99.99,,---,-99.99,0.00,VWS V14.01,2013-03-02 15:06:00,
2013-03-02 09:12:00,23.7,-1.8,30.27,NNW,338,5.6,7.2,32,-99.99,,---,-99.99,0.00,VWS V14.01,2013-03-02 15:12:00,
2013-03-02 09:17:00,23.7,-1.8,30.27,NW,315,4.9,4.9,32,-99.99,,---,-99.99,0.00,VWS V14.01,2013-03-02 15:17:00,
2013-03-02 09:23:00,23.9,-1.7,30.27,North,0,8.5,8.5,32,-99.99,,---,-99.99,0.00,VWS V14.01,2013-03-02 15:23:00,
2013-03-02 09:29:00,23.9,-3.7,30.27,NW,315,7.8,7.8,29,-99.99,,---,-99.99,0.00,VWS V14.01,2013-03-02 15:29:00,
2013-03-02 09:35:00,24.1,-3.6,30.27,North,0,7.6,7.6,29,-99.99,,---,-99.99,0.00,VWS V14.01,2013-03-02 15:35:00,
2013-03-02 09:41:00,24.1,-3.6,30.24,NNW,338,6.5,6.5,29,-99.99,,---,-99.99,0.00,VWS V14.01,2013-03-02 15:41:00,
2013-03-02 09:46:00,24.1,-3.6,30.24,NNW,338,6.3,6.3,29,-99.99,,---,-99.99,0.00,VWS V14.01,2013-03-02 15:46:00,
2013-03-02 09:51:00,24.1,-3.6,30.27,WNW,292,5.4,6.5,29,-99.99,,---,-99.99,0.00,VWS V14.01,2013-03-02 15:51:00,
2013-03-02 09:56:00,24.1,-3.6,30.27,NNE,22,2.9,2.9,29,-99.99,,---,-99.99,0.00,VWS V14.01,2013-03-02 15:56:00,
2013-03-02 10:02:00,25.7,-2.2,30.27,NNE,22,5.8,6.0,29,-99.99,,---,-99.99,0.00,VWS V14.01,2013-03-02 16:02:00,
2013-03-02 10:08:00,25.7,-2.2,30.27,NNE,22,3.8,3.8,29,-99.99,,---,-99.99,0.00,VWS V14.01,2013-03-02 16:08:00,
2013-03-02 10:14:00,26.4,-3.8,30.27,North,0,7.6,7.6,26,-99.99,,---,-99.99,0.00,VWS V14.01,2013-03-02 16:14:00,
2013-03-02 10:19:00,26.2,-4.0,30.27,NNW,338,7.4,7.4,26,-99.99,,---,-99.99,0.00,VWS V14.01,2013-03-02 16:19:00,
2013-03-02 10:26:00,25.9,-4.3,30.27,NNW,338,6.0,6.0,26,-99.99,,---,-99.99,0.00,VWS V14.01,2013-03-02 16:26:00,
2013-03-02 10:32:00,26.4,-3.8,30.27,NNW,338,7.2,7.2,26,-99.99,,---,-99.99,0.00,VWS V14.01,2013-03-02 16:32:00,
2013-03-02 10:38:00,25.7,-4.4,30.27,NNW,338,5.4,10.3,26,-99.99,,---,-99.99,0.00,VWS V14.01,2013-03-02 16:38:00,
2013-03-02 10:44:00,25.9,-4.3,30.27,WNW,292,7.8,7.8,26,-99.99,,---,-99.99,0.00,VWS V14.01,2013-03-02 16:44:00,
2013-03-02 10:49:00,25.9,-4.3,30.27,NNW,338,6.5,6.5,26,-99.99,,---,-99.99,0.00,VWS V14.01,2013-03-02 16:49:00,
2013-03-02 10:54:00,27.0,-3.3,30.27,NNW,338,6.5,6.5,26,-99.99,,---,-99.99,0.00,VWS V14.01,2013-03-02 16:54:00,
2013-03-02 11:00:00,27.0,-3.3,30.27,NNW,338,4.9,4.9,26,-99.99,,---,-99.99,0.00,VWS V14.01,2013-03-02 17:00:00,
2013-03-02 11:06:00,27.7,-2.7,30.27,NNW,338,3.8,4.3,26,-99.99,,---,-99.99,0.00,VWS V14.01,2013-03-02 17:06:00,
2013-03-02 11:12:00,28.4,-2.1,30.27,NW,315,4.0,4.0,26,-99.99,,---,-99.99,0.00,VWS V14.01,2013-03-02 17:12:00,
2013-03-02 11:18:00,28.0,-2.4,30.27,NNE,22,4.9,5.6,26,-99.99,,---,-99.99,0.00,VWS V14.01,2013-03-02 17:18:00,
2013-03-02 11:23:00,28.2,-2.2,30.27,North,0,6.0,6.0,26,-99.99,,---,-99.99,0.00,VWS V14.01,2013-03-02 17:23:00,
2013-03-02 11:29:00,28.2,-2.2,30.27,NNW,338,5.4,5.6,26,-99.99,,---,-99.99,0.00,VWS V14.01,2013-03-02 17:29:00,
2013-03-02 11:35:00,28.8,-2.6,30.27,NNE,22,3.8,6.0,25,-99.99,,---,-99.99,0.00,VWS V14.01,2013-03-02 17:35:00,
2013-03-02 11:41:00,28.8,-2.6,30.27,WNW,292,3.6,4.9,25,-99.99,,---,-99.99,0.00,VWS V14.01,2013-03-02 17:41:00,
2013-03-02 11:46:00,28.8,-2.6,30.27,WNW,292,4.0,4.0,25,-99.99,,---,-99.99,0.00,VWS V14.01,2013-03-02 17:46:00,
2013-03-02 11:52:00,28.2,-2.2,30.27,NW,315,5.6,5.6,26,-99.99,,---,-99.99,0.00,VWS V14.01,2013-03-02 17:52:00,
2013-03-02 11:57:00,27.9,-5.1,30.27,WNW,292,6.3,6.3,23,-99.99,,---,-99.99,0.00,VWS V14.01,2013-03-02 17:57:00,
2013-03-02 12:02:00,27.9,-2.6,30.27,WNW,292,5.6,5.6,26,-99.99,,---,-99.99,0.00,VWS V14.01,2013-03-02 18:02:00,
2013-03-02 12:08:00,28.0,-2.4,30.27,WNW,292,6.5,6.5,26,-99.99,,---,-99.99,0.00,VWS V14.01,2013-03-02 18:08:00,
2013-03-02 12:14:00,28.6,-2.8,30.27,NNE,22,4.3,4.3,25,-99.99,,---,-99.99,0.00,VWS V14.01,2013-03-02 18:14:00,
2013-03-02 12:20:00,28.6,-2.8,30.27,NW,315,4.9,4.9,25,-99.99,,---,-99.99,0.00,VWS V14.01,2013-03-02 18:20:00,
2013-03-02 12:25:00,28.8,-2.6,30.27,WNW,292,3.1,4.9,25,-99.99,,---,-99.99,0.00,VWS V14.01,2013-03-02 18:25:00,
2013-03-02 12:31:00,28.8,-2.6,30.27,NNW,338,2.9,2.9,25,-99.99,,---,-99.99,0.00,VWS V14.01,2013-03-02 18:31:00,
2013-03-02 12:37:00,29.3,-3.9,30.27,WNW,292,5.8,7.4,23,-99.99,,---,-99.99,0.00,VWS V14.01,2013-03-02 18:37:00,
2013-03-02 12:43:00,29.3,-3.9,30.27,WNW,292,4.0,5.4,23,-99.99,,---,-99.99,0.00,VWS V14.01,2013-03-02 18:43:00,
2013-03-02 12:49:00,29.3,-3.9,30.27,NNW,338,2.9,5.4,23,-99.99,,---,-99.99,0.00,VWS V14.01,2013-03-02 18:49:00,
2013-03-02 12:55:00,29.3,-3.9,30.27,NNW,338,5.6,5.6,23,-99.99,,---,-99.99,0.00,VWS V14.01,2013-03-02 18:55:00,
2013-03-02 13:01:00,29.3,-3.9,30.27,WNW,292,4.0,4.0,23,-99.99,,---,-99.99,0.00,VWS V14.01,2013-03-02 19:01:00,
2013-03-02 13:07:00,29.7,-3.6,30.27,NW,315,4.0,4.0,23,-99.99,,---,-99.99,0.00,VWS V14.01,2013-03-02 19:07:00,
2013-03-02 13:12:00,29.8,-3.4,30.27,WNW,292,3.4,4.0,23,-99.99,,---,-99.99,0.00,VWS V14.01,2013-03-02 19:12:00,
2013-03-02 13:17:00,29.8,-3.4,30.27,WNW,292,4.9,4.9,23,-99.99,,---,-99.99,0.00,VWS V14.01,2013-03-02 19:17:00,
2013-03-02 13:22:00,29.7,-3.6,30.27,WNW,292,4.5,4.5,23,-99.99,,---,-99.99,0.00,VWS V14.01,2013-03-02 19:22:00,
2013-03-02 13:28:00,29.7,-3.6,30.27,NNW,338,4.0,4.0,23,-99.99,,---,-99.99,0.00,VWS V14.01,2013-03-02 19:28:00,
2013-03-02 13:34:00,30.2,-3.1,30.27,NNW,338,4.0,4.0,23,-99.99,,---,-99.99,0.00,VWS V14.01,2013-03-02 19:34:00,
2013-03-02 13:39:00,30.2,-3.1,30.24,WNW,292,4.3,4.3,23,-99.99,,---,-99.99,0.00,VWS V14.01,2013-03-02 19:39:00,
2013-03-02 13:45:00,30.9,-2.5,30.24,WNW,292,3.6,4.0,23,-99.99,,---,-99.99,0.00,VWS V14.01,2013-03-02 19:45:00,
2013-03-02 13:51:00,31.1,-2.4,30.24,NNW,338,2.9,2.9,23,-99.99,,---,-99.99,0.00,VWS V14.01,2013-03-02 19:51:00,
2013-03-02 13:57:00,31.3,-2.2,30.27,WSW,248,3.8,3.8,23,-99.99,,---,-99.99,0.00,VWS V14.01,2013-03-02 19:57:00,
2013-03-02 14:02:00,31.3,-2.2,30.27,WNW,292,3.1,4.7,23,-99.99,,---,-99.99,0.00,VWS V14.01,2013-03-02 20:02:00,
2013-03-02 14:07:00,31.3,-2.2,30.27,West,270,3.6,3.6,23,-99.99,,---,-99.99,0.00,VWS V14.01,2013-03-02 20:07:00,
2013-03-02 14:14:00,31.3,-2.2,30.24,WSW,248,3.4,3.4,23,-99.99,,---,-99.99,0.00,VWS V14.01,2013-03-02 20:14:00,
2013-03-02 14:19:00,31.8,-1.8,30.24,WNW,292,4.9,4.9,23,-99.99,,---,-99.99,0.00,VWS V14.01,2013-03-02 20:19:00,
2013-03-02 14:24:00,31.6,-1.9,30.24,WNW,292,4.7,4.7,23,-99.99,,---,-99.99,0.00,VWS V14.01,2013-03-02 20:24:00,
2013-03-02 14:29:00,31.6,-1.9,30.24,West,270,3.1,4.5,23,-99.99,,---,-99.99,0.00,VWS V14.01,2013-03-02 20:29:00,
2013-03-02 14:35:00,32.0,-1.6,30.24,WNW,292,3.1,3.8,23,-99.99,,---,-99.99,0.00,VWS V14.01,2013-03-02 20:35:00,
2013-03-02 14:41:00,32.0,-1.6,30.24,WNW,292,2.9,3.4,23,-99.99,,---,-99.99,0.00,VWS V14.01,2013-03-02 20:41:00,
2013-03-02 14:47:00,32.0,-1.6,30.24,WNW,292,4.7,4.7,23,-99.99,,---,-99.99,0.00,VWS V14.01,2013-03-02 20:47:00,
2013-03-02 14:53:00,32.0,-1.6,30.24,WSW,248,2.9,2.9,23,-99.99,,---,-99.99,0.00,VWS V14.01,2013-03-02 20:53:00,
2013-03-02 14:59:00,32.0,-1.6,30.24,WNW,292,0.0,0.0,23,-99.99,,---,-99.99,0.00,VWS V14.01,2013-03-02 20:59:00,
2013-03-02 15:05:00,33.1,-0.7,30.24,WNW,292,1.6,2.5,23,-99.99,,---,-99.99,0.00,VWS V14.01,2013-03-02 21:05:00,
2013-03-02 15:11:00,33.1,-0.7,30.21,WNW,292,3.1,3.1,23,-99.99,,---,-99.99,0.00,VWS V14.01,2013-03-02 21:11:00,
2013-03-02 15:16:00,33.1,-0.7,30.21,WNW,292,1.6,1.6,23,-99.99,,---,-99.99,0.00,VWS V14.01,2013-03-02 21:16:00,
2013-03-02 15:22:00,32.9,-0.8,30.21,West,270,0.0,2.0,23,-99.99,,---,-99.99,0.00,VWS V14.01,2013-03-02 21:22:00,
2013-03-02 15:28:00,33.3,-0.5,30.21,West,270,3.4,3.4,23,-99.99,,---,-99.99,0.00,VWS V14.01,2013-03-02 21:28:00,
2013-03-02 15:34:00,33.4,-0.4,30.21,WSW,248,0.0,0.0,23,-99.99,,---,-99.99,0.00,VWS V14.01,2013-03-02 21:34:00,
2013-03-02 15:40:00,34.2,-0.7,30.21,North,0,1.3,1.3,22,-99.99,,---,-99.99,0.00,VWS V14.01,2013-03-02 21:40:00,
2013-03-02 15:46:00,34.3,-0.6,30.21,NNW,338,0.0,0.0,22,-99.99,,---,-99.99,0.00,VWS V14.01,2013-03-02 21:46:00,
2013-03-02 15:51:00,36.7,1.4,30.21,West,270,0.0,0.0,22,-99.99,,---,-99.99,0.00,VWS V14.01,2013-03-02 21:51:00,
2013-03-02 15:57:00,36.7,1.4,30.18,WNW,292,2.7,2.7,22,-99.99,,---,-99.99,0.00,VWS V14.01,2013-03-02 21:57:00,
2013-03-02 16:02:00,34.5,-0.4,30.18,WNW,292,2.2,2.2,22,-99.99,,---,-99.99,0.00,VWS V14.01,2013-03-02 22:02:00,
2013-03-02 16:08:00,34.0,-0.9,30.18,WNW,292,1.3,2.5,22,-99.99,,---,-99.99,0.00,VWS V14.01,2013-03-02 22:08:00,
2013-03-02 16:14:00,33.6,-0.2,30.21,NW,315,1.3,1.3,23,-99.99,,---,-99.99,0.00,VWS V14.01,2013-03-02 22:14:00,
2013-03-02 16:19:00,33.1,-0.7,30.21,WNW,292,2.9,2.9,23,-99.99,,---,-99.99,0.00,VWS V14.01,2013-03-02 22:19:00,
2013-03-02 16:24:00,33.1,-0.7,30.21,NW,315,2.7,2.7,23,-99.99,,---,-99.99,0.00,VWS V14.01,2013-03-02 22:24:00,
2013-03-02 16:30:00,32.5,-1.1,30.21,WNW,292,2.5,2.7,23,-99.99,,---,-99.99,0.00,VWS V14.01,2013-03-02 22:30:00,
2013-03-02 16:37:00,32.7,-1.0,30.21,WNW,292,2.9,2.9,23,-99.99,,---,-99.99,0.00,VWS V14.01,2013-03-02 22:37:00,
2013-03-02 16:45:00,0.0,0.0,30.21,NW,315,2.0,2.0,0,-99.99,,---,-99.99,0.00,VWS V14.01,2013-03-02 22:45:00,
2013-03-02 16:51:00,32.4,-1.3,30.21,WNW,292,0.0,0.9,23,-99.99,,---,-99.99,0.00,VWS V14.01,2013-03-02 22:51:00,
2013-03-02 16:56:00,32.5,-1.1,30.21,WNW,292,0.0,0.0,23,-99.99,,---,-99.99,0.00,VWS V14.01,2013-03-02 22:56:00,
2013-03-02 17:02:00,32.4,-1.3,30.21,WNW,292,2.0,2.5,23,-99.99,,---,-99.99,0.00,VWS V14.01,2013-03-02 23:02:00,
2013-03-02 17:08:00,32.0,-1.6,30.21,WNW,292,0.0,0.0,23,-99.99,,---,-99.99,0.00,VWS V14.01,2013-03-02 23:08:00,
2013-03-02 17:14:00,32.0,-1.6,30.21,NW,315,0.0,0.0,23,-99.99,,---,-99.99,0.00,VWS V14.01,2013-03-02 23:14:00,
2013-03-02 17:20:00,32.0,-1.6,30.21,NW,315,0.0,0.0,23,-99.99,,---,-99.99,0.00,VWS V14.01,2013-03-02 23:20:00,
2013-03-02 17:26:00,32.2,-1.4,30.18,NW,315,0.0,0.0,23,-99.99,,---,-99.99,0.00,VWS V14.01,2013-03-02 23:26:00,
2013-03-02 17:32:00,32.5,-1.1,30.18,NW,315,0.0,0.0,23,-99.99,,---,-99.99,0.00,VWS V14.01,2013-03-02 23:32:00,
2013-03-02 17:37:00,31.8,-1.8,30.18,NW,315,0.0,0.0,23,-99.99,,---,-99.99,0.00,VWS V14.01,2013-03-02 23:37:00,
2013-03-02 17:43:00,30.4,-3.0,30.18,NW,315,0.0,0.0,23,-99.99,,---,-99.99,0.00,VWS V14.01,2013-03-02 23:43:00,
2013-03-02 17:49:00,29.3,-3.9,30.18,West,270,0.0,0.0,23,-99.99,,---,-99.99,0.00,VWS V14.01,2013-03-02 23:49:00,
2013-03-02 17:55:00,28.6,-4.5,30.15,West,270,0.0,0.0,23,-99.99,,---,-99.99,0.00,VWS V14.01,2013-03-02 23:55:00,
2013-03-02 18:01:00,27.9,-5.1,30.15,SSW,202,0.0,0.0,23,-99.99,,---,-99.99,0.00,VWS V14.01,2013-03-03 00:01:00,
2013-03-02 18:07:00,27.9,-5.1,30.15,SSW,202,0.0,0.0,23,-99.99,,---,-99.99,0.00,VWS V14.01,2013-03-03 00:07:00,
2013-03-02 18:12:00,27.9,-5.1,30.15,South,180,0.0,0.0,23,-99.99,,---,-99.99,0.00,VWS V14.01,2013-03-03 00:12:00,
2013-03-02 18:18:00,27.0,-5.9,30.15,SE,135,0.0,0.0,23,-99.99,,---,-99.99,0.00,VWS V14.01,2013-03-03 00:18:00,
2013-03-02 18:24:00,26.1,-5.8,30.15,SE,135,0.0,0.0,24,-99.99,,---,-99.99,0.00,VWS V14.01,2013-03-03 00:24:00,
2013-03-02 18:30:00,26.1,-5.8,30.15,SE,135,0.0,0.0,24,-99.99,,---,-99.99,0.00,VWS V14.01,2013-03-03 00:30:00,
2013-03-02 18:35:00,25.9,-5.9,30.15,SSE,158,0.0,0.0,24,-99.99,,---,-99.99,0.00,VWS V14.01,2013-03-03 00:35:00,
2013-03-02 18:40:00,25.9,-5.9,30.15,SSE,158,0.0,0.0,24,-99.99,,---,-99.99,0.00,VWS V14.01,2013-03-03 00:40:00,
2013-03-02 18:46:00,25.9,-5.9,30.15,SSE,158,0.0,0.0,24,-99.99,,---,-99.99,0.00,VWS V14.01,2013-03-03 00:46:00,
2013-03-02 18:51:00,25.9,-5.9,30.15,SSE,158,0.0,0.0,24,-99.99,,---,-99.99,0.00,VWS V14.01,2013-03-03 00:51:00,
2013-03-02 18:56:00,25.9,-5.9,30.15,SSE,158,0.0,0.0,24,-99.99,,---,-99.99,0.00,VWS V14.01,2013-03-03 00:56:00,
2013-03-02 19:02:00,25.9,-5.9,30.15,SSE,158,0.0,0.0,24,-99.99,,---,-99.99,0.00,VWS V14.01,2013-03-03 01:02:00,
2013-03-02 19:08:00,25.9,-5.9,30.12,SSE,158,0.0,0.0,24,-99.99,,---,-99.99,0.00,VWS V14.01,2013-03-03 01:08:00,
2013-03-02 19:14:00,25.7,-6.1,30.12,SSE,158,0.0,0.0,24,-99.99,,---,-99.99,0.00,VWS V14.01,2013-03-03 01:14:00,
2013-03-02 19:19:00,25.7,-6.1,30.12,South,180,0.0,0.0,24,-99.99,,---,-99.99,0.00,VWS V14.01,2013-03-03 01:19:00,
2013-03-02 19:24:00,25.7,-6.1,30.12,South,180,0.0,0.0,24,-99.99,,---,-99.99,0.00,VWS V14.01,2013-03-03 01:24:00,
2013-03-02 19:30:00,25.5,-6.2,30.12,SSE,158,0.0,0.0,24,-99.99,,---,-99.99,0.00,VWS V14.01,2013-03-03 01:30:00,
2013-03-02 19:35:00,25.7,-6.1,30.12,SSE,158,0.0,0.0,24,-99.99,,---,-99.99,0.00,VWS V14.01,2013-03-03 01:35:00,